sensor_id;sensor_type;location;lat;lon;timestamp;temperature;humidity
62583;DHT22;48641;51.676;5.808;2022-08-14T00:00:27;25.90;44.50
62583;DHT22;48641;51.676;5.808;2022-08-14T00:02:53;25.90;44.60
62583;DHT22;48641;51.676;5.808;2022-08-14T00:05:20;25.80;44.50
62583;DHT22;48641;51.676;5.808;2022-08-14T00:07:48;25.80;44.50
62583;DHT22;48641;51.676;5.808;2022-08-14T00:10:17;25.80;44.50
62583;DHT22;48641;51.676;5.808;2022-08-14T00:12:51;25.80;44.70
62583;DHT22;48641;51.676;5.808;2022-08-14T00:17:48;25.80;44.90
62583;DHT22;48641;51.676;5.808;2022-08-14T00:20:21;25.80;44.90
62583;DHT22;48641;51.676;5.808;2022-08-14T00:22:46;25.80;44.90
62583;DHT22;48641;51.676;5.808;2022-08-14T00:25:12;25.80;44.90
62583;DHT22;48641;51.676;5.808;2022-08-14T00:27:38;25.80;44.90
62583;DHT22;48641;51.676;5.808;2022-08-14T00:30:09;25.80;44.80
62583;DHT22;48641;51.676;5.808;2022-08-14T00:32:35;25.80;44.90
62583;DHT22;48641;51.676;5.808;2022-08-14T00:35:02;25.80;44.80
62583;DHT22;48641;51.676;5.808;2022-08-14T00:37:29;25.80;44.90
62583;DHT22;48641;51.676;5.808;2022-08-14T00:39:55;25.80;44.90
62583;DHT22;48641;51.676;5.808;2022-08-14T00:42:21;25.70;44.90
62583;DHT22;48641;51.676;5.808;2022-08-14T00:44:48;25.70;44.90
62583;DHT22;48641;51.676;5.808;2022-08-14T00:47:15;25.70;45.00
62583;DHT22;48641;51.676;5.808;2022-08-14T00:49:41;25.70;45.00
62583;DHT22;48641;51.676;5.808;2022-08-14T00:52:08;25.80;45.00
62583;DHT22;48641;51.676;5.808;2022-08-14T00:54:33;25.70;44.90
62583;DHT22;48641;51.676;5.808;2022-08-14T00:57:02;25.70;44.90
62583;DHT22;48641;51.676;5.808;2022-08-14T00:59:27;25.70;44.80
62583;DHT22;48641;51.676;5.808;2022-08-14T01:01:56;25.70;44.90
62583;DHT22;48641;51.676;5.808;2022-08-14T01:04:22;25.70;44.80
62583;DHT22;48641;51.676;5.808;2022-08-14T01:06:49;25.70;44.80
62583;DHT22;48641;51.676;5.808;2022-08-14T01:09:17;25.70;44.80
62583;DHT22;48641;51.676;5.808;2022-08-14T01:11:50;25.70;44.90
62583;DHT22;48641;51.676;5.808;2022-08-14T01:14:17;25.70;44.90
62583;DHT22;48641;51.676;5.808;2022-08-14T01:16:43;25.70;44.90
62583;DHT22;48641;51.676;5.808;2022-08-14T01:19:09;25.70;44.80
62583;DHT22;48641;51.676;5.808;2022-08-14T01:21:53;25.60;44.80
62583;DHT22;48641;51.676;5.808;2022-08-14T01:24:22;25.70;45.00
62583;DHT22;48641;51.676;5.808;2022-08-14T01:26:48;25.70;45.00
62583;DHT22;48641;51.676;5.808;2022-08-14T01:29:15;25.70;44.90
62583;DHT22;48641;51.676;5.808;2022-08-14T01:31:42;25.70;44.80
62583;DHT22;48641;51.676;5.808;2022-08-14T01:34:27;25.70;44.80
62583;DHT22;48641;51.676;5.808;2022-08-14T01:36:53;25.60;44.80
62583;DHT22;48641;51.676;5.808;2022-08-14T01:39:19;25.60;44.80
62583;DHT22;48641;51.676;5.808;2022-08-14T01:41:47;25.60;44.80
62583;DHT22;48641;51.676;5.808;2022-08-14T01:44:16;25.60;44.80
62583;DHT22;48641;51.676;5.808;2022-08-14T01:46:43;25.60;44.80
62583;DHT22;48641;51.676;5.808;2022-08-14T01:49:13;25.60;44.80
62583;DHT22;48641;51.676;5.808;2022-08-14T01:51:42;25.60;45.80
62583;DHT22;48641;51.676;5.808;2022-08-14T01:54:14;25.60;44.90
62583;DHT22;48641;51.676;5.808;2022-08-14T01:56:42;25.60;44.90
62583;DHT22;48641;51.676;5.808;2022-08-14T02:01:40;25.60;44.80
62583;DHT22;48641;51.676;5.808;2022-08-14T02:04:07;25.60;44.80
62583;DHT22;48641;51.676;5.808;2022-08-14T02:06:34;25.60;44.80
62583;DHT22;48641;51.676;5.808;2022-08-14T02:09:05;25.60;44.80
62583;DHT22;48641;51.676;5.808;2022-08-14T02:11:31;25.60;44.80
62583;DHT22;48641;51.676;5.808;2022-08-14T02:14:05;25.60;44.80
62583;DHT22;48641;51.676;5.808;2022-08-14T02:16:34;25.50;44.80
62583;DHT22;48641;51.676;5.808;2022-08-14T02:19:06;25.50;44.80
62583;DHT22;48641;51.676;5.808;2022-08-14T02:21:32;25.60;44.90
62583;DHT22;48641;51.676;5.808;2022-08-14T02:24:00;25.50;44.90
62583;DHT22;48641;51.676;5.808;2022-08-14T02:26:31;25.50;44.90
62583;DHT22;48641;51.676;5.808;2022-08-14T02:29:05;25.50;44.90
62583;DHT22;48641;51.676;5.808;2022-08-14T02:31:34;25.60;44.90
62583;DHT22;48641;51.676;5.808;2022-08-14T02:34:09;25.50;44.90
62583;DHT22;48641;51.676;5.808;2022-08-14T02:36:37;25.50;44.80
62583;DHT22;48641;51.676;5.808;2022-08-14T02:39:05;25.50;44.90
62583;DHT22;48641;51.676;5.808;2022-08-14T02:41:31;25.50;44.90
62583;DHT22;48641;51.676;5.808;2022-08-14T02:43:57;25.40;44.80
62583;DHT22;48641;51.676;5.808;2022-08-14T02:46:23;25.50;44.90
62583;DHT22;48641;51.676;5.808;2022-08-14T02:48:48;25.40;44.80
62583;DHT22;48641;51.676;5.808;2022-08-14T02:51:14;25.40;44.80
62583;DHT22;48641;51.676;5.808;2022-08-14T02:53:44;25.50;44.90
62583;DHT22;48641;51.676;5.808;2022-08-14T02:56:16;25.50;44.90
62583;DHT22;48641;51.676;5.808;2022-08-14T02:58:47;25.40;44.90
62583;DHT22;48641;51.676;5.808;2022-08-14T03:01:14;25.40;44.90
62583;DHT22;48641;51.676;5.808;2022-08-14T03:03:40;25.40;44.90
62583;DHT22;48641;51.676;5.808;2022-08-14T03:06:08;25.40;44.90
62583;DHT22;48641;51.676;5.808;2022-08-14T03:08:34;25.40;44.90
62583;DHT22;48641;51.676;5.808;2022-08-14T03:11:06;25.40;44.90
62583;DHT22;48641;51.676;5.808;2022-08-14T03:13:35;25.40;44.90
62583;DHT22;48641;51.676;5.808;2022-08-14T03:16:02;25.40;44.90
62583;DHT22;48641;51.676;5.808;2022-08-14T03:18:28;25.40;44.90
62583;DHT22;48641;51.676;5.808;2022-08-14T03:20:54;25.30;44.80
62583;DHT22;48641;51.676;5.808;2022-08-14T03:23:20;25.30;44.90
62583;DHT22;48641;51.676;5.808;2022-08-14T03:25:46;25.40;44.90
62583;DHT22;48641;51.676;5.808;2022-08-14T03:28:12;25.30;44.90
62583;DHT22;48641;51.676;5.808;2022-08-14T03:30:38;25.40;44.90
62583;DHT22;48641;51.676;5.808;2022-08-14T03:33:05;25.30;44.90
62583;DHT22;48641;51.676;5.808;2022-08-14T03:35:32;25.40;44.90
62583;DHT22;48641;51.676;5.808;2022-08-14T03:38:09;25.40;44.90
62583;DHT22;48641;51.676;5.808;2022-08-14T03:40:37;25.40;45.00
62583;DHT22;48641;51.676;5.808;2022-08-14T03:43:05;25.30;44.90
62583;DHT22;48641;51.676;5.808;2022-08-14T03:45:35;25.30;44.90
62583;DHT22;48641;51.676;5.808;2022-08-14T03:48:17;25.30;44.90
62583;DHT22;48641;51.676;5.808;2022-08-14T03:50:49;25.30;44.90
62583;DHT22;48641;51.676;5.808;2022-08-14T03:53:18;25.20;44.90
62583;DHT22;48641;51.676;5.808;2022-08-14T03:55:45;25.20;45.00
62583;DHT22;48641;51.676;5.808;2022-08-14T03:58:11;25.20;44.90
62583;DHT22;48641;51.676;5.808;2022-08-14T04:00:38;25.20;45.00
62583;DHT22;48641;51.676;5.808;2022-08-14T04:03:08;25.20;45.10
62583;DHT22;48641;51.676;5.808;2022-08-14T04:05:35;25.20;45.00
62583;DHT22;48641;51.676;5.808;2022-08-14T04:08:03;25.20;45.00
62583;DHT22;48641;51.676;5.808;2022-08-14T04:10:29;25.20;45.00
62583;DHT22;48641;51.676;5.808;2022-08-14T04:12:54;25.20;45.00
62583;DHT22;48641;51.676;5.808;2022-08-14T04:15:23;25.20;45.10
62583;DHT22;48641;51.676;5.808;2022-08-14T04:17:49;25.20;45.20
62583;DHT22;48641;51.676;5.808;2022-08-14T04:20:15;25.20;45.10
62583;DHT22;48641;51.676;5.808;2022-08-14T04:22:41;25.20;46.10
62583;DHT22;48641;51.676;5.808;2022-08-14T04:25:09;25.20;45.20
62583;DHT22;48641;51.676;5.808;2022-08-14T04:27:35;25.10;45.10
62583;DHT22;48641;51.676;5.808;2022-08-14T04:30:02;25.10;45.10
62583;DHT22;48641;51.676;5.808;2022-08-14T04:32:28;25.10;45.00
62583;DHT22;48641;51.676;5.808;2022-08-14T04:34:54;25.10;45.10
62583;DHT22;48641;51.676;5.808;2022-08-14T04:37:21;25.10;45.00
62583;DHT22;48641;51.676;5.808;2022-08-14T04:40:06;25.10;45.10
62583;DHT22;48641;51.676;5.808;2022-08-14T04:42:50;25.20;45.10
62583;DHT22;48641;51.676;5.808;2022-08-14T04:45:34;25.10;45.10
62583;DHT22;48641;51.676;5.808;2022-08-14T04:48:15;25.10;45.10
62583;DHT22;48641;51.676;5.808;2022-08-14T04:50:42;25.10;45.00
62583;DHT22;48641;51.676;5.808;2022-08-14T04:53:11;25.10;45.10
62583;DHT22;48641;51.676;5.808;2022-08-14T04:55:38;25.00;45.10
62583;DHT22;48641;51.676;5.808;2022-08-14T04:58:05;25.00;45.20
62583;DHT22;48641;51.676;5.808;2022-08-14T05:00:31;25.10;45.10
62583;DHT22;48641;51.676;5.808;2022-08-14T05:02:57;25.00;45.10
62583;DHT22;48641;51.676;5.808;2022-08-14T05:05:24;25.00;45.10
62583;DHT22;48641;51.676;5.808;2022-08-14T05:07:52;25.00;45.20
62583;DHT22;48641;51.676;5.808;2022-08-14T05:10:18;25.00;45.10
62583;DHT22;48641;51.676;5.808;2022-08-14T05:12:49;25.00;45.20
62583;DHT22;48641;51.676;5.808;2022-08-14T05:15:17;25.00;45.10
62583;DHT22;48641;51.676;5.808;2022-08-14T05:17:45;25.10;45.20
62583;DHT22;48641;51.676;5.808;2022-08-14T05:20:13;25.00;45.10
62583;DHT22;48641;51.676;5.808;2022-08-14T05:22:38;25.00;45.40
62583;DHT22;48641;51.676;5.808;2022-08-14T05:25:04;24.90;45.30
62583;DHT22;48641;51.676;5.808;2022-08-14T05:27:30;24.90;45.40
62583;DHT22;48641;51.676;5.808;2022-08-14T05:29:55;25.00;45.40
62583;DHT22;48641;51.676;5.808;2022-08-14T05:32:22;24.90;45.40
62583;DHT22;48641;51.676;5.808;2022-08-14T05:34:48;24.90;45.40
62583;DHT22;48641;51.676;5.808;2022-08-14T05:37:13;24.90;45.40
62583;DHT22;48641;51.676;5.808;2022-08-14T05:39:40;24.90;45.40
62583;DHT22;48641;51.676;5.808;2022-08-14T05:42:06;24.90;45.40
62583;DHT22;48641;51.676;5.808;2022-08-14T05:44:32;24.90;45.40
62583;DHT22;48641;51.676;5.808;2022-08-14T05:46:58;25.00;45.50
62583;DHT22;48641;51.676;5.808;2022-08-14T05:49:24;25.00;45.50
62583;DHT22;48641;51.676;5.808;2022-08-14T05:51:50;24.90;45.40
62583;DHT22;48641;51.676;5.808;2022-08-14T05:54:15;24.90;45.40
62583;DHT22;48641;51.676;5.808;2022-08-14T05:56:41;24.90;45.40
62583;DHT22;48641;51.676;5.808;2022-08-14T05:59:07;24.90;45.40
62583;DHT22;48641;51.676;5.808;2022-08-14T06:01:32;24.90;45.50
62583;DHT22;48641;51.676;5.808;2022-08-14T06:03:58;24.90;45.50
62583;DHT22;48641;51.676;5.808;2022-08-14T06:06:24;24.90;45.50
62583;DHT22;48641;51.676;5.808;2022-08-14T06:08:49;25.00;45.60
62583;DHT22;48641;51.676;5.808;2022-08-14T06:11:15;24.90;45.60
62583;DHT22;48641;51.676;5.808;2022-08-14T06:13:42;24.90;45.60
62583;DHT22;48641;51.676;5.808;2022-08-14T06:16:08;24.90;45.60
62583;DHT22;48641;51.676;5.808;2022-08-14T06:18:34;24.90;45.60
62583;DHT22;48641;51.676;5.808;2022-08-14T06:21:01;24.90;45.60
62583;DHT22;48641;51.676;5.808;2022-08-14T06:23:27;25.00;45.70
62583;DHT22;48641;51.676;5.808;2022-08-14T06:25:53;25.00;46.70
62583;DHT22;48641;51.676;5.808;2022-08-14T06:28:21;24.90;45.70
62583;DHT22;48641;51.676;5.808;2022-08-14T06:30:48;25.00;45.70
62583;DHT22;48641;51.676;5.808;2022-08-14T06:33:15;25.00;45.70
62583;DHT22;48641;51.676;5.808;2022-08-14T06:35:41;24.90;45.70
62583;DHT22;48641;51.676;5.808;2022-08-14T06:38:06;24.90;45.80
62583;DHT22;48641;51.676;5.808;2022-08-14T06:40:34;24.90;45.70
62583;DHT22;48641;51.676;5.808;2022-08-14T06:43:02;24.90;45.80
62583;DHT22;48641;51.676;5.808;2022-08-14T06:45:31;24.90;45.90
62583;DHT22;48641;51.676;5.808;2022-08-14T06:47:57;24.90;45.90
62583;DHT22;48641;51.676;5.808;2022-08-14T06:50:23;24.90;45.90
62583;DHT22;48641;51.676;5.808;2022-08-14T06:52:49;24.90;45.90
62583;DHT22;48641;51.676;5.808;2022-08-14T06:55:16;24.90;46.00
62583;DHT22;48641;51.676;5.808;2022-08-14T06:57:47;24.90;45.90
62583;DHT22;48641;51.676;5.808;2022-08-14T07:00:23;25.00;46.00
62583;DHT22;48641;51.676;5.808;2022-08-14T07:02:50;25.00;46.00
62583;DHT22;48641;51.676;5.808;2022-08-14T07:05:34;24.90;45.90
62583;DHT22;48641;51.676;5.808;2022-08-14T07:08:19;25.00;46.00
62583;DHT22;48641;51.676;5.808;2022-08-14T07:10:49;24.90;46.00
62583;DHT22;48641;51.676;5.808;2022-08-14T07:13:16;24.90;46.10
62583;DHT22;48641;51.676;5.808;2022-08-14T07:15:44;24.90;46.10
62583;DHT22;48641;51.676;5.808;2022-08-14T07:18:12;24.90;46.20
62583;DHT22;48641;51.676;5.808;2022-08-14T07:20:38;24.90;46.20
62583;DHT22;48641;51.676;5.808;2022-08-14T07:23:06;24.90;46.30
62583;DHT22;48641;51.676;5.808;2022-08-14T07:25:33;24.90;46.20
62583;DHT22;48641;51.676;5.808;2022-08-14T07:28:00;24.90;46.20
62583;DHT22;48641;51.676;5.808;2022-08-14T07:30:26;24.90;47.30
62583;DHT22;48641;51.676;5.808;2022-08-14T07:32:51;25.00;46.30
62583;DHT22;48641;51.676;5.808;2022-08-14T07:35:17;25.00;46.30
62583;DHT22;48641;51.676;5.808;2022-08-14T07:37:46;25.00;46.30
62583;DHT22;48641;51.676;5.808;2022-08-14T07:40:12;25.00;46.30
62583;DHT22;48641;51.676;5.808;2022-08-14T07:42:37;25.00;46.40
62583;DHT22;48641;51.676;5.808;2022-08-14T07:45:03;25.00;46.30
62583;DHT22;48641;51.676;5.808;2022-08-14T07:47:29;25.00;46.40
62583;DHT22;48641;51.676;5.808;2022-08-14T07:50:01;25.00;46.50
62583;DHT22;48641;51.676;5.808;2022-08-14T07:52:28;25.10;46.80
62583;DHT22;48641;51.676;5.808;2022-08-14T07:54:55;25.10;46.80
62583;DHT22;48641;51.676;5.808;2022-08-14T07:57:21;25.00;46.80
62583;DHT22;48641;51.676;5.808;2022-08-14T07:59:47;25.10;46.90
62583;DHT22;48641;51.676;5.808;2022-08-14T08:02:14;25.10;47.00
62583;DHT22;48641;51.676;5.808;2022-08-14T08:04:43;25.10;47.00
62583;DHT22;48641;51.676;5.808;2022-08-14T08:07:09;25.10;47.20
62583;DHT22;48641;51.676;5.808;2022-08-14T08:09:35;25.10;47.00
62583;DHT22;48641;51.676;5.808;2022-08-14T08:12:02;25.00;47.30
62583;DHT22;48641;51.676;5.808;2022-08-14T08:14:32;25.10;47.40
62583;DHT22;48641;51.676;5.808;2022-08-14T08:16:58;25.10;47.50
62583;DHT22;48641;51.676;5.808;2022-08-14T08:19:24;25.10;47.50
62583;DHT22;48641;51.676;5.808;2022-08-14T08:21:50;25.10;47.50
62583;DHT22;48641;51.676;5.808;2022-08-14T08:24:16;25.10;47.50
62583;DHT22;48641;51.676;5.808;2022-08-14T08:26:41;25.10;47.50
62583;DHT22;48641;51.676;5.808;2022-08-14T08:29:07;25.20;47.70
62583;DHT22;48641;51.676;5.808;2022-08-14T08:31:45;25.20;47.70
62583;DHT22;48641;51.676;5.808;2022-08-14T08:34:11;25.20;47.70
62583;DHT22;48641;51.676;5.808;2022-08-14T08:36:41;25.20;47.80
62583;DHT22;48641;51.676;5.808;2022-08-14T08:39:06;25.20;48.90
62583;DHT22;48641;51.676;5.808;2022-08-14T08:41:59;25.20;47.90
62583;DHT22;48641;51.676;5.808;2022-08-14T08:44:30;25.30;48.00
62583;DHT22;48641;51.676;5.808;2022-08-14T08:46:57;25.30;49.10
62583;DHT22;48641;51.676;5.808;2022-08-14T08:49:37;25.20;48.20
62583;DHT22;48641;51.676;5.808;2022-08-14T08:52:06;25.30;48.20
62583;DHT22;48641;51.676;5.808;2022-08-14T08:54:33;25.30;48.20
62583;DHT22;48641;51.676;5.808;2022-08-14T08:56:58;25.30;48.20
62583;DHT22;48641;51.676;5.808;2022-08-14T08:59:25;25.30;48.20
62583;DHT22;48641;51.676;5.808;2022-08-14T09:02:06;25.30;48.20
62583;DHT22;48641;51.676;5.808;2022-08-14T09:04:40;25.40;48.30
62583;DHT22;48641;51.676;5.808;2022-08-14T09:07:09;25.40;48.30
62583;DHT22;48641;51.676;5.808;2022-08-14T09:09:35;25.40;48.30
62583;DHT22;48641;51.676;5.808;2022-08-14T09:12:16;25.40;48.90
62583;DHT22;48641;51.676;5.808;2022-08-14T09:14:42;25.40;48.30
62583;DHT22;48641;51.676;5.808;2022-08-14T09:17:08;25.40;48.40
62583;DHT22;48641;51.676;5.808;2022-08-14T09:19:35;25.50;48.40
62583;DHT22;48641;51.676;5.808;2022-08-14T09:22:02;25.50;48.40
62583;DHT22;48641;51.676;5.808;2022-08-14T09:24:28;25.50;48.30
62583;DHT22;48641;51.676;5.808;2022-08-14T09:26:54;25.60;48.30
62583;DHT22;48641;51.676;5.808;2022-08-14T09:29:20;25.60;48.20
62583;DHT22;48641;51.676;5.808;2022-08-14T09:31:54;25.60;48.20
62583;DHT22;48641;51.676;5.808;2022-08-14T09:34:43;25.60;48.20
62583;DHT22;48641;51.676;5.808;2022-08-14T09:45:16;25.70;48.40
62583;DHT22;48641;51.676;5.808;2022-08-14T09:47:51;25.70;48.60
62583;DHT22;48641;51.676;5.808;2022-08-14T09:52:56;25.80;48.50
62583;DHT22;48641;51.676;5.808;2022-08-14T09:55:23;25.80;48.50
62583;DHT22;48641;51.676;5.808;2022-08-14T09:57:51;25.80;48.40
62583;DHT22;48641;51.676;5.808;2022-08-14T10:00:18;25.90;48.40
62583;DHT22;48641;51.676;5.808;2022-08-14T10:02:52;25.90;48.30
62583;DHT22;48641;51.676;5.808;2022-08-14T10:05:30;25.90;48.20
62583;DHT22;48641;51.676;5.808;2022-08-14T10:07:58;25.90;48.20
62583;DHT22;48641;51.676;5.808;2022-08-14T10:10:29;26.00;48.20
62583;DHT22;48641;51.676;5.808;2022-08-14T10:12:56;26.00;48.10
62583;DHT22;48641;51.676;5.808;2022-08-14T10:15:24;26.00;48.00
62583;DHT22;48641;51.676;5.808;2022-08-14T10:18:06;26.00;47.90
62583;DHT22;48641;51.676;5.808;2022-08-14T10:20:39;26.10;48.00
62583;DHT22;48641;51.676;5.808;2022-08-14T10:23:17;26.10;48.00
62583;DHT22;48641;51.676;5.808;2022-08-14T10:25:49;26.10;47.70
62583;DHT22;48641;51.676;5.808;2022-08-14T10:28:17;26.10;47.60
62583;DHT22;48641;51.676;5.808;2022-08-14T10:30:44;26.10;47.60
62583;DHT22;48641;51.676;5.808;2022-08-14T10:33:32;26.20;47.70
62583;DHT22;48641;51.676;5.808;2022-08-14T10:35:59;26.20;47.50
62583;DHT22;48641;51.676;5.808;2022-08-14T10:38:32;26.20;47.80
62583;DHT22;48641;51.676;5.808;2022-08-14T10:41:09;26.30;48.30
62583;DHT22;48641;51.676;5.808;2022-08-14T10:43:38;26.40;48.40
62583;DHT22;48641;51.676;5.808;2022-08-14T10:46:13;26.40;48.30
62583;DHT22;48641;51.676;5.808;2022-08-14T10:48:38;26.50;48.30
62583;DHT22;48641;51.676;5.808;2022-08-14T10:51:04;26.50;48.20
62583;DHT22;48641;51.676;5.808;2022-08-14T10:53:32;26.50;47.90
62583;DHT22;48641;51.676;5.808;2022-08-14T10:56:00;26.60;47.50
62583;DHT22;48641;51.676;5.808;2022-08-14T10:58:29;26.60;47.40
62583;DHT22;48641;51.676;5.808;2022-08-14T11:00:58;26.60;47.50
62583;DHT22;48641;51.676;5.808;2022-08-14T11:03:39;26.60;47.10
62583;DHT22;48641;51.676;5.808;2022-08-14T11:06:31;26.60;46.80
62583;DHT22;48641;51.676;5.808;2022-08-14T11:08:57;26.70;46.80
62583;DHT22;48641;51.676;5.808;2022-08-14T11:11:24;26.70;46.80
62583;DHT22;48641;51.676;5.808;2022-08-14T11:13:56;26.70;46.60
62583;DHT22;48641;51.676;5.808;2022-08-14T11:16:22;26.70;46.40
62583;DHT22;48641;51.676;5.808;2022-08-14T11:18:49;26.70;46.50
62583;DHT22;48641;51.676;5.808;2022-08-14T11:21:17;26.80;46.30
62583;DHT22;48641;51.676;5.808;2022-08-14T11:23:45;26.80;46.00
62583;DHT22;48641;51.676;5.808;2022-08-14T11:26:12;26.80;46.10
62583;DHT22;48641;51.676;5.808;2022-08-14T11:28:41;26.80;46.20
62583;DHT22;48641;51.676;5.808;2022-08-14T11:31:09;26.80;46.00
62583;DHT22;48641;51.676;5.808;2022-08-14T11:33:37;26.80;45.80
62583;DHT22;48641;51.676;5.808;2022-08-14T11:36:05;26.90;45.70
62583;DHT22;48641;51.676;5.808;2022-08-14T11:41:03;26.90;45.40
62583;DHT22;48641;51.676;5.808;2022-08-14T11:43:29;27.00;45.60
62583;DHT22;48641;51.676;5.808;2022-08-14T11:45:56;27.00;45.50
62583;DHT22;48641;51.676;5.808;2022-08-14T11:48:24;27.00;45.60
62583;DHT22;48641;51.676;5.808;2022-08-14T11:50:51;27.10;45.60
62583;DHT22;48641;51.676;5.808;2022-08-14T11:53:27;27.10;45.50
62583;DHT22;48641;51.676;5.808;2022-08-14T11:56:05;27.10;45.30
62583;DHT22;48641;51.676;5.808;2022-08-14T11:58:36;27.10;45.10
62583;DHT22;48641;51.676;5.808;2022-08-14T12:01:06;27.10;44.90
62583;DHT22;48641;51.676;5.808;2022-08-14T12:03:49;27.10;44.70
62583;DHT22;48641;51.676;5.808;2022-08-14T12:06:17;27.20;44.60
62583;DHT22;48641;51.676;5.808;2022-08-14T12:08:43;27.20;44.60
62583;DHT22;48641;51.676;5.808;2022-08-14T12:11:12;27.20;45.50
62583;DHT22;48641;51.676;5.808;2022-08-14T12:13:40;27.20;44.40
62583;DHT22;48641;51.676;5.808;2022-08-14T12:16:08;27.30;44.50
62583;DHT22;48641;51.676;5.808;2022-08-14T12:18:39;27.30;44.50
62583;DHT22;48641;51.676;5.808;2022-08-14T12:21:18;27.30;44.40
62583;DHT22;48641;51.676;5.808;2022-08-14T12:24:04;27.30;44.10
62583;DHT22;48641;51.676;5.808;2022-08-14T12:26:31;27.30;44.10
62583;DHT22;48641;51.676;5.808;2022-08-14T12:29:11;27.30;44.10
62583;DHT22;48641;51.676;5.808;2022-08-14T12:31:37;27.30;44.10
62583;DHT22;48641;51.676;5.808;2022-08-14T12:34:05;27.30;44.50
62583;DHT22;48641;51.676;5.808;2022-08-14T12:36:32;27.40;44.50
62583;DHT22;48641;51.676;5.808;2022-08-14T12:38:59;27.40;44.10
62583;DHT22;48641;51.676;5.808;2022-08-14T12:41:29;27.40;44.00
62583;DHT22;48641;51.676;5.808;2022-08-14T12:43:58;27.40;43.90
62583;DHT22;48641;51.676;5.808;2022-08-14T12:46:34;27.50;43.80
62583;DHT22;48641;51.676;5.808;2022-08-14T12:49:08;27.50;43.80
62583;DHT22;48641;51.676;5.808;2022-08-14T12:51:34;27.50;44.00
62583;DHT22;48641;51.676;5.808;2022-08-14T12:54:15;27.50;44.10
62583;DHT22;48641;51.676;5.808;2022-08-14T12:56:42;27.50;44.10
62583;DHT22;48641;51.676;5.808;2022-08-14T12:59:08;27.50;44.20
62583;DHT22;48641;51.676;5.808;2022-08-14T13:01:34;27.50;44.30
62583;DHT22;48641;51.676;5.808;2022-08-14T13:04:09;27.60;44.40
62583;DHT22;48641;51.676;5.808;2022-08-14T13:06:39;27.60;44.30
62583;DHT22;48641;51.676;5.808;2022-08-14T13:09:05;27.60;44.20
62583;DHT22;48641;51.676;5.808;2022-08-14T13:11:41;27.60;44.00
62583;DHT22;48641;51.676;5.808;2022-08-14T13:14:15;27.60;43.90
62583;DHT22;48641;51.676;5.808;2022-08-14T13:16:42;27.60;43.70
62583;DHT22;48641;51.676;5.808;2022-08-14T13:19:13;27.70;43.70
62583;DHT22;48641;51.676;5.808;2022-08-14T13:21:43;27.70;43.70
62583;DHT22;48641;51.676;5.808;2022-08-14T13:24:12;27.70;43.70
62583;DHT22;48641;51.676;5.808;2022-08-14T13:26:49;27.70;43.60
62583;DHT22;48641;51.676;5.808;2022-08-14T13:29:25;27.70;43.30
62583;DHT22;48641;51.676;5.808;2022-08-14T13:31:53;27.80;43.00
62583;DHT22;48641;51.676;5.808;2022-08-14T13:34:21;27.80;43.00
62583;DHT22;48641;51.676;5.808;2022-08-14T13:36:48;27.80;43.00
62583;DHT22;48641;51.676;5.808;2022-08-14T13:39:18;27.80;43.20
62583;DHT22;48641;51.676;5.808;2022-08-14T13:41:45;27.80;43.00
62583;DHT22;48641;51.676;5.808;2022-08-14T13:44:13;27.90;43.00
62583;DHT22;48641;51.676;5.808;2022-08-14T13:46:40;27.90;42.80
62583;DHT22;48641;51.676;5.808;2022-08-14T13:49:05;27.90;43.00
62583;DHT22;48641;51.676;5.808;2022-08-14T13:51:39;27.90;43.00
62583;DHT22;48641;51.676;5.808;2022-08-14T13:54:06;27.90;43.20
62583;DHT22;48641;51.676;5.808;2022-08-14T13:56:38;27.90;43.00
62583;DHT22;48641;51.676;5.808;2022-08-14T13:59:04;27.90;42.70
62583;DHT22;48641;51.676;5.808;2022-08-14T14:01:31;27.90;42.70
62583;DHT22;48641;51.676;5.808;2022-08-14T14:04:00;28.00;42.40
62583;DHT22;48641;51.676;5.808;2022-08-14T14:06:27;28.00;42.40
62583;DHT22;48641;51.676;5.808;2022-08-14T14:08:56;27.90;42.30
62583;DHT22;48641;51.676;5.808;2022-08-14T14:11:22;28.00;42.40
62583;DHT22;48641;51.676;5.808;2022-08-14T14:13:54;28.00;42.20
62583;DHT22;48641;51.676;5.808;2022-08-14T14:16:21;28.00;42.00
62583;DHT22;48641;51.676;5.808;2022-08-14T14:18:51;28.00;41.80
62583;DHT22;48641;51.676;5.808;2022-08-14T14:21:21;28.00;42.00
62583;DHT22;48641;51.676;5.808;2022-08-14T14:23:48;28.00;42.00
62583;DHT22;48641;51.676;5.808;2022-08-14T14:26:16;28.00;42.00
62583;DHT22;48641;51.676;5.808;2022-08-14T14:28:45;28.00;42.10
62583;DHT22;48641;51.676;5.808;2022-08-14T14:31:16;28.00;42.30
62583;DHT22;48641;51.676;5.808;2022-08-14T14:33:47;28.00;42.10
62583;DHT22;48641;51.676;5.808;2022-08-14T14:36:18;28.00;42.20
62583;DHT22;48641;51.676;5.808;2022-08-14T14:38:44;28.00;41.90
62583;DHT22;48641;51.676;5.808;2022-08-14T14:41:15;28.00;42.00
62583;DHT22;48641;51.676;5.808;2022-08-14T14:43:47;28.10;41.90
62583;DHT22;48641;51.676;5.808;2022-08-14T14:46:16;28.10;41.80
62583;DHT22;48641;51.676;5.808;2022-08-14T14:48:42;28.10;41.90
62583;DHT22;48641;51.676;5.808;2022-08-14T14:51:09;28.00;41.80
62583;DHT22;48641;51.676;5.808;2022-08-14T14:53:38;28.10;42.00
62583;DHT22;48641;51.676;5.808;2022-08-14T14:56:04;28.10;42.00
62583;DHT22;48641;51.676;5.808;2022-08-14T14:58:30;28.10;42.00
62583;DHT22;48641;51.676;5.808;2022-08-14T15:01:03;28.10;42.00
62583;DHT22;48641;51.676;5.808;2022-08-14T15:03:29;28.10;41.80
62583;DHT22;48641;51.676;5.808;2022-08-14T15:05:54;28.10;41.90
62583;DHT22;48641;51.676;5.808;2022-08-14T15:08:21;28.10;41.90
62583;DHT22;48641;51.676;5.808;2022-08-14T15:10:47;28.10;41.90
62583;DHT22;48641;51.676;5.808;2022-08-14T15:13:12;28.10;41.80
62583;DHT22;48641;51.676;5.808;2022-08-14T15:15:38;28.10;41.80
62583;DHT22;48641;51.676;5.808;2022-08-14T15:18:05;28.10;41.90
62583;DHT22;48641;51.676;5.808;2022-08-14T15:20:31;28.10;41.90
62583;DHT22;48641;51.676;5.808;2022-08-14T15:23:00;28.10;42.00
62583;DHT22;48641;51.676;5.808;2022-08-14T15:25:25;28.10;41.80
62583;DHT22;48641;51.676;5.808;2022-08-14T15:27:58;28.10;41.90
62583;DHT22;48641;51.676;5.808;2022-08-14T15:30:26;28.10;42.00
62583;DHT22;48641;51.676;5.808;2022-08-14T15:32:53;28.10;41.90
62583;DHT22;48641;51.676;5.808;2022-08-14T15:35:21;28.10;41.70
62583;DHT22;48641;51.676;5.808;2022-08-14T15:37:47;28.10;41.80
62583;DHT22;48641;51.676;5.808;2022-08-14T15:40:13;28.10;41.80
62583;DHT22;48641;51.676;5.808;2022-08-14T15:42:38;28.10;41.60
62583;DHT22;48641;51.676;5.808;2022-08-14T15:45:06;28.10;41.60
62583;DHT22;48641;51.676;5.808;2022-08-14T15:47:35;28.10;41.60
62583;DHT22;48641;51.676;5.808;2022-08-14T15:50:04;28.10;41.50
62583;DHT22;48641;51.676;5.808;2022-08-14T15:52:33;28.10;41.60
62583;DHT22;48641;51.676;5.808;2022-08-14T15:55:03;28.10;41.60
62583;DHT22;48641;51.676;5.808;2022-08-14T15:57:30;28.10;41.70